createdAt,value
2017-09-25T00:00:54.207Z,84.00
2017-09-25T00:03:21.080Z,84.10
2017-09-25T00:05:47.384Z,86.30
2017-09-25T00:08:15.296Z,85.00
2017-09-25T00:10:41.604Z,84.00
2017-09-25T00:13:07.920Z,84.30
2017-09-25T00:15:34.252Z,84.60
2017-09-25T00:18:00.560Z,84.20
2017-09-25T00:20:26.980Z,83.80
2017-09-25T00:22:53.320Z,84.50
2017-09-25T00:25:20.119Z,85.10
2017-09-25T00:27:46.416Z,85.30
2017-09-25T00:30:13.286Z,85.30
2017-09-25T00:32:39.646Z,85.30
2017-09-25T00:35:07.099Z,84.60
2017-09-25T00:37:33.437Z,84.20
2017-09-25T00:39:59.796Z,84.70
2017-09-25T00:42:26.576Z,84.40
2017-09-25T00:44:52.900Z,86.90
2017-09-25T00:47:19.227Z,84.90
2017-09-25T00:49:46.172Z,84.60
2017-09-25T00:52:19.613Z,84.50
2017-09-25T00:54:46.736Z,84.80
2017-09-25T00:57:13.575Z,84.90
2017-09-25T00:59:46.492Z,84.70
2017-09-25T01:05:12.134Z,86.80
2017-09-25T01:07:39.219Z,85.10
2017-09-25T01:10:05.668Z,85.10
2017-09-25T01:12:32.779Z,85.30
2017-09-25T01:14:59.820Z,85.70
2017-09-25T01:17:27.048Z,85.80
2017-09-25T01:19:53.405Z,83.60
2017-09-25T01:22:19.759Z,85.30
2017-09-25T01:24:48.202Z,85.40
2017-09-25T01:27:14.530Z,85.40
2017-09-25T01:29:40.837Z,85.10
2017-09-25T01:32:07.192Z,86.20
2017-09-25T01:34:33.492Z,85.80
2017-09-25T01:37:00.989Z,87.30
2017-09-25T01:39:27.328Z,87.40
2017-09-25T01:41:54.395Z,86.80
2017-09-25T01:44:21.344Z,86.10
2017-09-25T01:46:49.016Z,88.70
2017-09-25T01:49:15.968Z,87.10
2017-09-25T01:51:42.277Z,86.80
2017-09-25T01:54:08.596Z,86.30
2017-09-25T01:56:35.608Z,86.00
2017-09-25T01:59:01.952Z,86.60
2017-09-25T02:01:28.262Z,86.90
2017-09-25T02:03:54.611Z,89.40
2017-09-25T02:06:20.944Z,87.30
2017-09-25T02:08:47.396Z,86.70
2017-09-25T02:11:13.766Z,86.50
2017-09-25T02:13:40.075Z,86.30
2017-09-25T02:16:06.392Z,86.40
2017-09-25T02:18:32.763Z,85.80
2017-09-25T02:20:59.915Z,86.30
2017-09-25T02:23:27.600Z,86.20
2017-09-25T02:25:53.928Z,86.30
2017-09-25T02:28:24.022Z,86.60
2017-09-25T02:30:50.467Z,86.50
2017-09-25T02:33:16.813Z,87.00
2017-09-25T02:35:44.491Z,85.80
2017-09-25T02:38:10.864Z,85.90
2017-09-25T02:40:37.220Z,86.60
2017-09-25T02:43:04.072Z,86.30
2017-09-25T02:45:31.016Z,86.30
2017-09-25T02:47:57.320Z,86.40
2017-09-25T02:50:23.632Z,86.80
2017-09-25T02:52:51.353Z,86.60
2017-09-25T02:55:17.664Z,86.70
2017-09-25T02:57:44.636Z,86.90
2017-09-25T03:00:10.951Z,87.50
2017-09-25T03:02:37.256Z,87.00
2017-09-25T03:05:04.336Z,86.90
2017-09-25T03:07:30.656Z,87.00
2017-09-25T03:09:57.784Z,86.70
2017-09-25T03:12:24.835Z,86.80
2017-09-25T03:14:51.236Z,87.50
2017-09-25T03:17:18.176Z,87.50
2017-09-25T03:19:44.512Z,87.70
2017-09-25T03:22:10.812Z,87.40
2017-09-25T03:24:38.644Z,87.40
2017-09-25T03:27:05.272Z,87.40
2017-09-25T03:29:31.611Z,87.30
2017-09-25T03:31:58.567Z,87.10
2017-09-25T03:34:24.879Z,87.00
2017-09-25T03:36:51.856Z,87.00
2017-09-25T03:39:18.153Z,87.00
2017-09-25T03:41:44.982Z,87.30
2017-09-25T03:44:12.380Z,87.60
2017-09-25T03:46:39.248Z,87.70
2017-09-25T03:49:05.563Z,87.70
2017-09-25T03:51:32.336Z,87.60
2017-09-25T03:53:58.635Z,87.40
2017-09-25T03:56:25.516Z,87.40
2017-09-25T03:58:51.836Z,87.20
2017-09-25T04:01:18.144Z,87.00
2017-09-25T04:03:44.499Z,87.10
2017-09-25T04:06:10.815Z,86.80
2017-09-25T04:08:37.240Z,87.00
2017-09-25T04:11:04.327Z,88.20
2017-09-25T04:13:31.406Z,88.30
2017-09-25T04:15:57.714Z,88.30
2017-09-25T04:18:24.011Z,88.40
2017-09-25T04:20:51.547Z,87.60
2017-09-25T04:23:18.605Z,87.60
2017-09-25T04:25:44.905Z,87.50
2017-09-25T04:28:11.216Z,87.40
2017-09-25T04:30:38.292Z,94.80
2017-09-25T04:33:04.612Z,95.20
2017-09-25T04:35:31.603Z,97.00
2017-09-25T04:37:57.910Z,90.20
2017-09-25T04:40:25.376Z,88.30
2017-09-25T04:42:52.472Z,88.20
2017-09-25T04:45:19.313Z,89.50
2017-09-25T04:47:46.184Z,91.40
2017-09-25T04:50:12.646Z,88.60
2017-09-25T04:52:39.688Z,87.90
2017-09-25T04:55:06.769Z,88.00
2017-09-25T04:57:33.970Z,88.10
2017-09-25T05:00:00.912Z,88.80
2017-09-25T05:02:27.744Z,89.00
2017-09-25T05:04:54.040Z,92.80
2017-09-25T05:07:21.968Z,89.10
2017-09-25T05:09:49.022Z,89.10
2017-09-25T05:12:16.270Z,92.50
2017-09-25T05:14:43.332Z,90.60
2017-09-25T05:17:10.584Z,89.20
2017-09-25T05:19:37.640Z,88.90
2017-09-25T05:22:04.504Z,89.20
2017-09-25T05:24:32.463Z,90.20
2017-09-25T05:26:59.489Z,91.40
2017-09-25T05:29:26.356Z,91.80
2017-09-25T05:31:53.092Z,90.30
2017-09-25T05:34:19.908Z,89.70
2017-09-25T05:36:46.848Z,89.40
2017-09-25T05:39:14.679Z,89.00
2017-09-25T05:41:41.721Z,89.10
2017-09-25T05:44:08.031Z,89.30
2017-09-25T05:46:34.904Z,89.10
2017-09-25T05:49:01.204Z,89.00
2017-09-25T05:51:27.519Z,88.90
2017-09-25T05:53:55.144Z,89.10
2017-09-25T05:56:21.453Z,89.10
2017-09-25T05:58:48.116Z,88.90
2017-09-25T06:01:14.428Z,88.60
2017-09-25T06:03:40.736Z,88.80
2017-09-25T06:06:08.464Z,88.70
2017-09-25T06:08:34.808Z,88.70
2017-09-25T06:11:01.103Z,88.50
2017-09-25T06:13:27.459Z,88.50
2017-09-25T06:15:54.533Z,89.30
2017-09-25T06:18:20.841Z,89.90
2017-09-25T06:20:47.143Z,89.50
2017-09-25T06:23:15.104Z,89.40
2017-09-25T06:25:41.487Z,89.40
2017-09-25T06:28:07.787Z,90.50
2017-09-25T06:30:34.955Z,88.80
2017-09-25T06:33:01.280Z,88.90
2017-09-25T06:35:29.012Z,89.20
2017-09-25T06:37:56.030Z,89.20
2017-09-25T06:40:22.912Z,88.60
2017-09-25T06:42:49.748Z,88.40
2017-09-25T06:45:16.691Z,88.60
2017-09-25T06:47:43.024Z,88.30
2017-09-25T06:50:09.324Z,88.00
2017-09-25T06:52:37.136Z,87.40
2017-09-25T06:55:03.443Z,87.50
2017-09-25T06:57:30.646Z,87.10
2017-09-25T06:59:56.967Z,87.10
2017-09-25T07:02:23.289Z,86.30
2017-09-25T07:04:49.631Z,86.10
2017-09-25T07:07:15.931Z,85.60
2017-09-25T07:09:43.088Z,84.60
2017-09-25T07:12:10.192Z,83.80
2017-09-25T07:14:36.991Z,83.70
2017-09-25T07:17:03.302Z,83.70
2017-09-25T07:19:29.604Z,83.20
2017-09-25T07:21:55.937Z,83.80
2017-09-25T07:24:23.077Z,82.50
2017-09-25T07:26:49.376Z,81.90
2017-09-25T07:29:16.432Z,81.40
2017-09-25T07:31:43.571Z,81.70
2017-09-25T07:34:10.399Z,81.60
2017-09-25T07:36:37.339Z,81.90
2017-09-25T07:39:04.192Z,81.20
2017-09-25T07:41:31.148Z,79.70
2017-09-25T07:43:58.491Z,80.10
2017-09-25T07:46:24.799Z,78.30
2017-09-25T07:48:51.115Z,78.80
2017-09-25T07:51:18.208Z,78.00
2017-09-25T07:53:44.533Z,78.00
2017-09-25T07:56:10.933Z,77.90
2017-09-25T07:58:38.546Z,77.80
2017-09-25T08:01:04.870Z,77.80
2017-09-25T08:03:31.192Z,78.10
2017-09-25T08:05:57.547Z,78.50
2017-09-25T08:08:23.872Z,78.20
2017-09-25T08:10:50.658Z,77.80
2017-09-25T08:13:16.983Z,77.50
2017-09-25T08:15:43.271Z,77.20
2017-09-25T08:18:10.359Z,75.90
2017-09-25T08:20:36.704Z,76.00
2017-09-25T08:23:03.125Z,76.30
2017-09-25T08:25:30.115Z,75.50
2017-09-25T08:27:57.062Z,75.90
2017-09-25T08:30:24.247Z,75.10
2017-09-25T08:32:50.547Z,75.30
2017-09-25T08:35:17.499Z,75.40
2017-09-25T08:37:43.812Z,74.80
2017-09-25T08:40:10.991Z,74.10
2017-09-25T08:42:37.943Z,73.70
2017-09-25T08:45:04.245Z,72.80
2017-09-25T08:47:30.567Z,71.80
2017-09-25T08:49:56.898Z,70.10
2017-09-25T08:52:23.941Z,70.80
2017-09-25T08:54:51.067Z,71.70
2017-09-25T08:57:17.780Z,71.30
2017-09-25T08:59:44.086Z,70.40
2017-09-25T09:02:11.119Z,68.20
2017-09-25T09:04:38.315Z,69.20
2017-09-25T09:07:04.609Z,68.90
2017-09-25T09:09:32.370Z,70.90
2017-09-25T09:11:59.299Z,70.00
2017-09-25T09:14:26.322Z,69.80
2017-09-25T09:16:53.199Z,68.90
2017-09-25T09:19:19.514Z,67.50
2017-09-25T09:21:46.483Z,64.90
2017-09-25T09:24:13.443Z,67.60
2017-09-25T09:26:39.768Z,65.60
2017-09-25T09:29:06.559Z,66.60
2017-09-25T09:31:34.399Z,60.40
2017-09-25T09:34:00.731Z,60.20
2017-09-25T09:36:27.043Z,63.90
2017-09-25T09:38:53.428Z,65.00
2017-09-25T09:41:19.729Z,63.90
2017-09-25T09:43:46.786Z,64.80
2017-09-25T09:46:13.127Z,64.60
2017-09-25T09:48:39.447Z,60.50
2017-09-25T09:51:05.835Z,63.80
2017-09-25T09:53:32.882Z,63.50
2017-09-25T09:55:59.287Z,62.10
2017-09-25T09:58:26.239Z,61.20
2017-09-25T10:00:52.615Z,60.00
2017-09-25T10:03:19.672Z,61.40
2017-09-25T10:05:47.607Z,60.30
2017-09-25T10:08:13.927Z,60.30
2017-09-25T10:10:40.923Z,62.80
2017-09-25T10:13:07.288Z,63.10
2017-09-25T10:15:33.592Z,61.40
2017-09-25T10:18:00.508Z,58.90
2017-09-25T10:20:27.408Z,60.50
2017-09-25T10:22:54.452Z,59.20
2017-09-25T10:25:21.872Z,59.10
2017-09-25T10:27:48.769Z,58.50
2017-09-25T10:30:16.391Z,59.60
2017-09-25T10:32:44.160Z,59.40
2017-09-25T10:35:10.476Z,59.70
2017-09-25T10:37:36.786Z,59.70
2017-09-25T10:40:03.820Z,59.40
2017-09-25T10:42:31.563Z,58.30
2017-09-25T10:44:57.868Z,58.20
2017-09-25T10:47:24.201Z,55.30
2017-09-25T10:49:50.548Z,57.40
2017-09-25T10:52:16.856Z,56.30
2017-09-25T10:54:43.366Z,57.80
2017-09-25T10:57:10.395Z,57.60
2017-09-25T10:59:36.716Z,57.10
2017-09-25T11:02:03.791Z,54.50
2017-09-25T11:04:30.532Z,55.00
2017-09-25T11:06:56.840Z,56.10
2017-09-25T11:09:23.156Z,55.40
2017-09-25T11:11:49.503Z,54.20
2017-09-25T11:14:15.799Z,55.20
2017-09-25T11:16:42.222Z,53.90
2017-09-25T11:19:08.558Z,54.40
2017-09-25T11:21:34.867Z,55.70
2017-09-25T11:24:01.822Z,55.10
2017-09-25T11:26:29.619Z,55.10
2017-09-25T11:28:56.652Z,55.70
2017-09-25T11:31:23.404Z,55.00
2017-09-25T11:33:49.712Z,55.20
2017-09-25T11:36:16.028Z,56.00
2017-09-25T11:38:42.438Z,56.30
2017-09-25T11:41:08.739Z,55.10
2017-09-25T11:43:35.703Z,56.60
2017-09-25T11:46:01.996Z,55.00
2017-09-25T11:48:28.879Z,55.70
2017-09-25T11:50:55.175Z,55.50
2017-09-25T11:53:21.503Z,55.40
2017-09-25T11:55:48.404Z,54.30
2017-09-25T11:58:15.564Z,52.80
2017-09-25T12:00:41.895Z,53.60
2017-09-25T12:03:08.747Z,50.90
2017-09-25T12:05:35.078Z,53.20
2017-09-25T12:08:01.460Z,51.90
2017-09-25T12:10:27.826Z,51.00
2017-09-25T12:12:54.148Z,52.50
2017-09-25T12:15:20.535Z,53.00
2017-09-25T12:17:46.892Z,53.70
2017-09-25T12:20:13.204Z,53.30
2017-09-25T12:22:40.155Z,54.20
2017-09-25T12:25:07.100Z,54.40
2017-09-25T12:27:34.437Z,54.50
2017-09-25T12:30:00.748Z,54.20
2017-09-25T12:32:27.056Z,54.80
2017-09-25T12:34:53.407Z,55.30
2017-09-25T12:37:20.464Z,55.00
2017-09-25T12:39:47.630Z,54.90
2017-09-25T12:42:15.238Z,54.80
2017-09-25T12:44:41.571Z,53.80
2017-09-25T12:47:07.920Z,54.30
2017-09-25T12:49:34.863Z,54.50
2017-09-25T12:52:01.173Z,54.90
2017-09-25T12:54:27.493Z,55.20
2017-09-25T12:56:53.828Z,54.40
2017-09-25T12:59:21.028Z,54.80
2017-09-25T13:01:48.047Z,54.60
2017-09-25T13:04:14.344Z,55.90
2017-09-25T13:06:40.684Z,56.60
2017-09-25T13:09:07.732Z,58.00
2017-09-25T13:11:34.125Z,58.70
2017-09-25T13:14:00.447Z,57.90
2017-09-25T13:16:26.751Z,61.50
2017-09-25T13:18:54.285Z,63.40
2017-09-25T13:21:20.592Z,63.50
2017-09-25T13:23:47.565Z,64.80
2017-09-25T13:26:15.234Z,65.60
2017-09-25T13:28:42.076Z,65.00
2017-09-25T13:31:08.384Z,65.40
2017-09-25T13:33:34.693Z,65.00
2017-09-25T13:36:01.771Z,66.00
2017-09-25T13:38:29.528Z,66.10
2017-09-25T13:40:56.538Z,65.50
2017-09-25T13:43:23.576Z,63.90
2017-09-25T13:45:50.436Z,63.70
2017-09-25T13:48:17.374Z,63.30
2017-09-25T13:50:43.712Z,63.20
2017-09-25T13:53:10.034Z,63.70
2017-09-25T13:55:36.382Z,64.60
2017-09-25T13:58:03.313Z,64.50
2017-09-25T14:03:02.420Z,65.00
2017-09-25T14:05:29.493Z,65.10
2017-09-25T14:07:57.068Z,65.80
2017-09-25T14:10:23.572Z,65.70
2017-09-25T14:12:49.941Z,65.70
2017-09-25T14:15:16.252Z,66.50
2017-09-25T14:17:42.995Z,65.90
2017-09-25T14:20:09.932Z,66.00
2017-09-25T14:22:36.985Z,66.10
2017-09-25T14:25:05.080Z,66.00
2017-09-25T14:27:32.169Z,66.00
2017-09-25T14:29:59.111Z,65.80
2017-09-25T14:32:26.120Z,65.40
2017-09-25T14:34:52.427Z,64.90
2017-09-25T14:37:18.752Z,64.40
2017-09-25T14:39:45.819Z,63.40
2017-09-25T14:42:12.772Z,63.10
2017-09-25T14:44:39.866Z,65.60
2017-09-25T14:47:06.440Z,65.80
2017-09-25T14:49:33.428Z,65.40
2017-09-25T14:51:59.915Z,66.10
2017-09-25T14:54:27.077Z,65.60
2017-09-25T14:56:54.214Z,65.00
2017-09-25T14:59:21.788Z,65.30
2017-09-25T15:01:48.115Z,65.30
2017-09-25T15:04:14.424Z,65.40
2017-09-25T15:06:42.936Z,65.00
2017-09-25T15:09:09.300Z,64.90
2017-09-25T15:11:35.652Z,65.60
2017-09-25T15:14:02.587Z,67.00
2017-09-25T15:16:28.919Z,68.60
2017-09-25T15:18:55.768Z,69.60
2017-09-25T15:21:22.607Z,68.10
2017-09-25T15:23:50.728Z,68.50
2017-09-25T15:26:17.795Z,66.20
2017-09-25T15:28:44.843Z,66.30
2017-09-25T15:31:12.874Z,66.40
2017-09-25T15:33:41.877Z,66.40
2017-09-25T15:36:08.359Z,66.60
2017-09-25T15:38:35.700Z,66.70
2017-09-25T15:41:02.748Z,66.60
2017-09-25T15:43:29.992Z,66.60
2017-09-25T15:45:56.355Z,67.80
2017-09-25T15:48:23.407Z,68.80
2017-09-25T15:50:50.892Z,69.60
2017-09-25T15:53:18.803Z,69.70
2017-09-25T15:55:47.586Z,70.50
2017-09-25T15:58:16.655Z,70.40
2017-09-25T16:00:44.151Z,71.30
2017-09-25T16:03:10.461Z,71.40
2017-09-25T16:05:37.424Z,71.70
2017-09-25T16:08:05.888Z,72.30
2017-09-25T16:10:32.335Z,72.10
2017-09-25T16:12:59.419Z,72.80
2017-09-25T16:15:26.271Z,73.10
2017-09-25T16:17:52.588Z,72.40
2017-09-25T16:20:18.907Z,72.50
2017-09-25T16:22:45.343Z,73.20
2017-09-25T16:25:12.031Z,72.50
2017-09-25T16:27:38.391Z,72.80
2017-09-25T16:30:04.676Z,74.30
2017-09-25T16:32:31.036Z,74.20
2017-09-25T16:34:57.356Z,74.80
2017-09-25T16:37:23.791Z,75.20
2017-09-25T16:39:50.292Z,73.90
2017-09-25T16:42:18.231Z,73.60
2017-09-25T16:44:44.555Z,73.70
2017-09-25T16:47:10.848Z,74.40
2017-09-25T16:49:37.949Z,74.60
2017-09-25T16:52:04.693Z,78.30
2017-09-25T16:54:31.643Z,76.70
2017-09-25T16:56:58.488Z,77.30
2017-09-25T16:59:25.359Z,77.30
2017-09-25T17:01:51.763Z,76.80
2017-09-25T17:04:18.735Z,76.40
2017-09-25T17:06:45.056Z,76.50
2017-09-25T17:09:12.065Z,76.10
2017-09-25T17:11:39.100Z,77.30
2017-09-25T17:14:06.127Z,77.40
2017-09-25T17:16:32.540Z,77.80
2017-09-25T17:18:58.852Z,77.70
2017-09-25T17:21:25.413Z,78.00
2017-09-25T17:23:52.591Z,77.40
2017-09-25T17:26:18.921Z,77.60
2017-09-25T17:28:45.554Z,77.80
2017-09-25T17:31:11.948Z,80.80
2017-09-25T17:33:39.012Z,81.50
2017-09-25T17:36:06.147Z,80.80
2017-09-25T17:38:32.686Z,80.80
2017-09-25T17:40:59.000Z,80.70
2017-09-25T17:43:26.092Z,79.30
2017-09-25T17:45:52.410Z,79.30
2017-09-25T17:48:20.344Z,82.20
2017-09-25T17:50:46.819Z,82.20
2017-09-25T17:53:14.136Z,79.90
2017-09-25T17:55:40.823Z,81.90
2017-09-25T17:58:08.160Z,81.30
2017-09-25T18:00:35.112Z,79.90
2017-09-25T18:03:01.950Z,79.40
2017-09-25T18:05:28.270Z,79.80
2017-09-25T18:07:55.035Z,80.50
2017-09-25T18:10:22.095Z,81.00
2017-09-25T18:12:48.420Z,79.70
2017-09-25T18:15:14.729Z,80.30
2017-09-25T18:17:41.088Z,80.00
2017-09-25T18:20:07.397Z,81.30
2017-09-25T18:22:34.021Z,81.00
2017-09-25T18:25:01.544Z,80.70
2017-09-25T18:27:27.868Z,80.90
2017-09-25T18:29:54.200Z,80.30
2017-09-25T18:32:21.912Z,80.50
2017-09-25T18:34:48.220Z,80.60
2017-09-25T18:37:14.650Z,80.60
2017-09-25T18:39:41.286Z,80.70
2017-09-25T18:42:08.335Z,80.90
2017-09-25T18:44:35.403Z,81.40
2017-09-25T18:47:01.707Z,82.60
2017-09-25T18:49:28.371Z,82.60
2017-09-25T18:51:55.541Z,84.90
2017-09-25T18:54:23.142Z,83.70
2017-09-25T18:56:51.276Z,85.10
2017-09-25T18:59:18.531Z,84.40
2017-09-25T19:01:44.961Z,83.60
2017-09-25T19:04:12.028Z,83.00
2017-09-25T19:06:38.333Z,84.10
2017-09-25T19:09:05.241Z,88.20
2017-09-25T19:11:31.543Z,85.40
2017-09-25T19:13:57.867Z,86.00
2017-09-25T19:16:24.461Z,86.30
2017-09-25T19:18:51.611Z,85.60
2017-09-25T19:21:19.476Z,85.20
2017-09-25T19:23:46.799Z,85.30
2017-09-25T19:26:13.152Z,85.00
2017-09-25T19:28:39.596Z,85.00
2017-09-25T19:31:06.528Z,86.10
2017-09-25T19:33:32.878Z,86.20
2017-09-25T19:36:00.220Z,86.10
2017-09-25T19:38:26.708Z,84.60
2017-09-25T19:40:53.310Z,86.20
2017-09-25T19:43:20.472Z,86.20
2017-09-25T19:45:46.903Z,85.90
2017-09-25T19:48:14.852Z,85.70
2017-09-25T19:50:51.919Z,85.50
2017-09-25T19:53:19.840Z,86.70
2017-09-25T19:55:47.895Z,86.80
2017-09-25T19:58:18.002Z,85.60
2017-09-25T20:00:45.123Z,86.50
2017-09-25T20:03:12.326Z,86.00
2017-09-25T20:05:40.579Z,87.30
2017-09-25T20:08:07.657Z,86.20
2017-09-25T20:10:34.194Z,86.30
2017-09-25T20:13:01.021Z,86.30
2017-09-25T20:15:31.234Z,86.40
2017-09-25T20:17:59.341Z,86.50
2017-09-25T20:20:26.923Z,87.00
2017-09-25T20:22:53.326Z,88.80
2017-09-25T20:25:21.259Z,86.70
2017-09-25T20:27:49.075Z,86.70
2017-09-25T20:30:15.783Z,86.10
2017-09-25T20:32:42.099Z,85.70
2017-09-25T20:35:08.415Z,85.50
2017-09-25T20:37:34.851Z,85.70
2017-09-25T20:40:02.963Z,85.10
2017-09-25T20:42:30.558Z,86.70
2017-09-25T20:44:57.634Z,85.90
2017-09-25T20:47:23.971Z,86.70
2017-09-25T20:49:50.303Z,85.60
2017-09-25T20:52:17.488Z,85.50
2017-09-25T20:54:44.182Z,86.90
2017-09-25T20:57:11.222Z,87.30
2017-09-25T20:59:38.635Z,87.40
2017-09-25T21:02:04.939Z,86.40
2017-09-25T21:04:32.056Z,87.00
2017-09-25T21:06:59.332Z,87.00
2017-09-25T21:09:25.663Z,86.80
2017-09-25T21:11:52.055Z,86.30
2017-09-25T21:14:18.443Z,86.80
2017-09-25T21:16:44.763Z,86.00
2017-09-25T21:19:11.838Z,86.30
2017-09-25T21:21:38.175Z,86.50
2017-09-25T21:24:04.891Z,88.10
2017-09-25T21:26:35.244Z,86.70
2017-09-25T21:29:02.327Z,86.80
2017-09-25T21:31:29.419Z,86.60
2017-09-25T21:33:55.731Z,87.60
2017-09-25T21:36:22.043Z,88.00
2017-09-25T21:38:49.118Z,87.70
2017-09-25T21:41:15.431Z,87.80
2017-09-25T21:43:43.137Z,87.30
2017-09-25T21:46:09.475Z,87.30
2017-09-25T21:48:35.850Z,88.40
2017-09-25T21:51:02.211Z,88.00
2017-09-25T21:53:29.928Z,88.10
2017-09-25T21:55:56.224Z,88.20
2017-09-25T21:58:23.108Z,88.20
2017-09-25T22:00:49.851Z,88.30
2017-09-25T22:03:16.703Z,88.00
2017-09-25T22:05:43.762Z,87.80
2017-09-25T22:08:10.091Z,88.00
2017-09-25T22:10:37.583Z,87.80
2017-09-25T22:13:03.917Z,88.30
2017-09-25T22:15:30.671Z,89.30
2017-09-25T22:17:57.491Z,88.00
2017-09-25T22:20:23.807Z,88.40
2017-09-25T22:22:50.115Z,89.00
2017-09-25T22:25:17.107Z,88.10
2017-09-25T22:27:44.435Z,88.00
2017-09-25T22:30:11.419Z,87.80
2017-09-25T22:32:37.814Z,87.70
2017-09-25T22:35:04.880Z,87.50
2017-09-25T22:37:31.275Z,87.50
2017-09-25T22:39:58.451Z,87.80
2017-09-25T22:42:28.012Z,86.90
2017-09-25T22:44:54.335Z,87.00
2017-09-25T22:47:20.651Z,86.60
2017-09-25T22:49:47.020Z,87.10
2017-09-25T22:52:13.339Z,86.80
2017-09-25T22:54:40.412Z,87.30
2017-09-25T22:57:06.755Z,86.70
2017-09-25T22:59:34.112Z,87.90
2017-09-25T23:02:00.447Z,87.70
2017-09-25T23:04:28.103Z,87.90
2017-09-25T23:06:54.427Z,87.30
2017-09-25T23:09:35.704Z,86.70
2017-09-25T23:12:02.591Z,88.10
2017-09-25T23:14:28.923Z,87.40
2017-09-25T23:16:55.231Z,87.40
2017-09-25T23:19:21.564Z,86.90
2017-09-25T23:21:48.579Z,86.40
2017-09-25T23:24:16.243Z,85.20
2017-09-25T23:26:43.315Z,84.80
2017-09-25T23:29:09.666Z,84.70
2017-09-25T23:31:36.879Z,83.90
2017-09-25T23:34:03.182Z,83.60
2017-09-25T23:36:29.603Z,82.90
2017-09-25T23:38:57.125Z,82.70
2017-09-25T23:41:24.163Z,82.10
2017-09-25T23:43:51.086Z,82.00
2017-09-25T23:46:17.381Z,79.90
2017-09-25T23:48:43.677Z,81.10
2017-09-25T23:51:10.006Z,80.80
2017-09-25T23:53:36.843Z,81.00
2017-09-25T23:56:03.142Z,80.10
2017-09-25T23:58:30.126Z,79.30
